TimeCST,TemperatureF,Dew PointF,Humidity,Sea Level PressureIn,VisibilityMPH,Wind Direction,Wind SpeedMPH,Gust SpeedMPH,PrecipitationIn,Events,Conditions,WindDirDegrees,DateUTC
12:15 AM,51.8,24.4,34,30.10,10.0,West,9.2,-,N/A,,Clear,270,2012-12-04 06:15:00
12:35 AM,54.5,25.2,32,30.10,10.0,West,6.9,-,N/A,,Clear,270,2012-12-04 06:35:00
12:55 AM,49.5,23.9,37,30.09,10.0,West,6.9,-,N/A,,Clear,270,2012-12-04 06:55:00
1:15 AM,49.5,24.1,37,30.10,10.0,WNW,4.6,-,N/A,,Clear,290,2012-12-04 07:15:00
1:35 AM,48.2,24.6,40,30.11,10.0,NE,4.6,-,N/A,,Clear,40,2012-12-04 07:35:00
1:55 AM,47.3,25.0,42,30.11,10.0,Calm,Calm,-,N/A,,Clear,0,2012-12-04 07:55:00
2:15 AM,45.3,23.9,43,30.12,10.0,Calm,Calm,-,N/A,,Clear,0,2012-12-04 08:15:00
2:55 AM,41.7,24.1,50,30.13,10.0,NW,5.8,-,N/A,,Clear,310,2012-12-04 08:55:00
3:15 AM,44.4,24.1,45,30.14,10.0,NNE,3.5,-,N/A,,Clear,20,2012-12-04 09:15:00
3:35 AM,42.4,23.4,47,30.14,10.0,WSW,5.8,-,N/A,,Clear,240,2012-12-04 09:35:00
3:55 AM,41.7,23.5,49,30.15,10.0,West,6.9,-,N/A,,Clear,260,2012-12-04 09:55:00
4:15 AM,40.5,23.0,50,30.16,10.0,WNW,3.5,-,N/A,,Clear,300,2012-12-04 10:15:00
4:35 AM,42.8,25.3,50,30.16,10.0,NNW,10.4,-,N/A,,Clear,330,2012-12-04 10:35:00
4:55 AM,44.4,25.7,48,30.17,10.0,NW,5.8,-,N/A,,Clear,320,2012-12-04 10:55:00
5:15 AM,43.2,25.7,50,30.17,10.0,NW,8.1,-,N/A,,Clear,320,2012-12-04 11:15:00
5:35 AM,42.6,25.3,51,30.18,10.0,NW,6.9,-,N/A,,Clear,320,2012-12-04 11:35:00
5:55 AM,41.5,25.0,52,30.20,10.0,NW,8.1,-,N/A,,Clear,320,2012-12-04 11:55:00
6:15 AM,40.5,25.3,55,30.22,10.0,WNW,5.8,-,N/A,,Clear,290,2012-12-04 12:15:00
6:35 AM,40.3,25.7,56,30.24,10.0,NW,8.1,-,N/A,,Clear,320,2012-12-04 12:35:00
6:55 AM,42.8,26.8,53,30.26,10.0,NNW,10.4,-,N/A,,Clear,330,2012-12-04 12:55:00
7:15 AM,42.8,27.0,54,30.28,10.0,NW,9.2,-,N/A,,Clear,320,2012-12-04 13:15:00
7:35 AM,42.8,27.9,56,30.29,10.0,NW,9.2,-,N/A,,Clear,320,2012-12-04 13:35:00
7:55 AM,43.0,28.4,56,30.30,10.0,NW,9.2,-,N/A,,Clear,320,2012-12-04 13:55:00
8:15 AM,44.1,29.3,56,30.32,10.0,NW,6.9,-,N/A,,Clear,320,2012-12-04 14:15:00
8:35 AM,46.2,30.6,54,30.33,10.0,NW,5.8,-,N/A,,Clear,310,2012-12-04 14:35:00
8:55 AM,48.6,31.8,52,30.35,10.0,NW,4.6,-,N/A,,Clear,310,2012-12-04 14:55:00
9:15 AM,50.9,32.2,49,30.36,10.0,NNW,6.9,-,N/A,,Clear,330,2012-12-04 15:15:00
9:35 AM,52.7,32.9,47,30.36,10.0,NW,6.9,-,N/A,,Clear,320,2012-12-04 15:35:00
9:55 AM,53.4,33.3,46,30.37,10.0,NNW,6.9,-,N/A,,Clear,330,2012-12-04 15:55:00
10:55 AM,56.1,34.9,45,30.38,10.0,NNW,5.8,-,N/A,,Clear,340,2012-12-04 16:55:00
11:35 AM,57.4,34.9,43,30.37,10.0,North,8.1,-,N/A,,Clear,10,2012-12-04 17:35:00
11:55 AM,58.6,34.9,41,30.37,10.0,NNW,4.6,-,N/A,,Clear,340,2012-12-04 17:55:00
12:15 PM,59.4,35.2,40,30.36,10.0,North,4.6,-,N/A,,Clear,350,2012-12-04 18:15:00
12:35 PM,60.6,35.1,38,30.36,10.0,NW,4.6,-,N/A,,Clear,320,2012-12-04 18:35:00
1:15 PM,62.6,35.4,36,30.34,10.0,NNW,4.6,-,N/A,,Clear,330,2012-12-04 19:15:00
1:35 PM,62.8,35.6,36,30.33,10.0,North,5.8,-,N/A,,Clear,350,2012-12-04 19:35:00
2:15 PM,64.0,35.6,35,30.32,10.0,North,10.4,-,N/A,,Clear,350,2012-12-04 20:15:00
2:55 PM,64.8,35.6,34,30.31,10.0,NNE,3.5,-,N/A,,Clear,20,2012-12-04 20:55:00
3:15 PM,64.9,35.4,33,30.30,10.0,Calm,Calm,-,N/A,,Clear,0,2012-12-04 21:15:00
3:35 PM,64.8,35.2,33,30.30,10.0,Calm,Calm,-,N/A,,Clear,0,2012-12-04 21:35:00
3:55 PM,65.3,35.2,33,30.30,10.0,NNW,4.6,-,N/A,,Clear,340,2012-12-04 21:55:00
4:15 PM,64.9,35.2,33,30.30,10.0,North,3.5,-,N/A,,Clear,10,2012-12-04 22:15:00
4:35 PM,65.1,35.1,33,30.30,10.0,North,4.6,-,N/A,,Clear,350,2012-12-04 22:35:00
5:15 PM,63.7,34.9,34,30.31,10.0,West,5.8,-,N/A,,Clear,280,2012-12-04 23:15:00
5:35 PM,62.1,34.7,36,30.31,10.0,WSW,3.5,-,N/A,,Clear,240,2012-12-04 23:35:00
6:15 PM,59.5,34.0,38,30.30,10.0,Calm,Calm,-,N/A,,Clear,0,2012-12-05 00:15:00
6:35 PM,57.7,33.8,41,30.30,10.0,WSW,3.5,-,N/A,,Clear,250,2012-12-05 00:35:00
6:55 PM,56.7,32.9,41,30.30,10.0,WSW,3.5,-,N/A,,Clear,240,2012-12-05 00:55:00
7:15 PM,53.4,32.4,45,30.30,10.0,Calm,Calm,-,N/A,,Clear,0,2012-12-05 01:15:00
7:35 PM,51.1,32.4,49,30.31,10.0,SSW,8.1,-,N/A,,Clear,210,2012-12-05 01:35:00
7:55 PM,48.9,31.8,52,30.31,10.0,WSW,5.8,-,N/A,,Clear,240,2012-12-05 01:55:00
8:35 PM,48.0,32.0,54,30.32,10.0,NNE,8.1,-,N/A,,Clear,20,2012-12-05 02:35:00
8:55 PM,51.6,33.4,50,30.33,10.0,NNE,4.6,-,N/A,,Clear,20,2012-12-05 02:55:00
9:15 PM,52.2,33.4,49,30.32,10.0,ENE,3.5,-,N/A,,Clear,70,2012-12-05 03:15:00
9:35 PM,50.7,33.4,52,30.32,10.0,Calm,Calm,-,N/A,,Clear,0,2012-12-05 03:35:00
9:55 PM,47.7,31.6,54,30.33,10.0,WSW,4.6,-,N/A,,Clear,250,2012-12-05 03:55:00
10:15 PM,52.2,34.0,50,30.32,10.0,SW,5.8,-,N/A,,Clear,230,2012-12-05 04:15:00
10:35 PM,43.7,30.9,61,30.33,10.0,West,6.9,-,N/A,,Clear,260,2012-12-05 04:35:00
10:55 PM,42.1,29.5,61,30.32,10.0,Calm,Calm,-,N/A,,Clear,0,2012-12-05 04:55:00
11:15 PM,41.2,29.7,64,30.33,10.0,Calm,Calm,-,N/A,,Clear,0,2012-12-05 05:15:00
11:35 PM,39.2,28.9,67,30.33,10.0,South,4.6,-,N/A,,Clear,170,2012-12-05 05:35:00
11:55 PM,39.7,28.6,64,30.33,10.0,SSW,6.9,-,N/A,,Clear,200,2012-12-05 05:55:00